IGO1872 FMEE-VOMM
Flight info
| Callsign | IGO1872 |
|---|---|
| Flight time | 5h 53m |
| Altitude | 35000 |
| Route | LOMRU DCT EPTEK DCT 15S060E 03S069E DCT RUSAP DCT MLE DCT MUGBA DCT TVM DCT GUTEG DCT MDI DCT TTR |
| Aircraft | A320/M-SDE3FGHIRWY/LB1 |
Departure
| Time | 2026-05-05 04:22 |
|---|---|
| Airport | Roland Garros Airport (FMEE) |
Arrival
| Time | 2026-05-05 10:15 |
|---|---|
| Airport | Chennai International Airport (VOMM) |
| Time | Latitude | Longitude | Altitude | Speed | Heading |
|---|---|---|---|---|---|
| 2026-05-05 03:46 | -20.88993 | 55.51045 | 75 ft | 0 kts | 206° |
| 2026-05-05 04:12 | -20.88992 | 55.51046 | 75 ft | 2 kts | 206° |
| 2026-05-05 04:12 | -20.88969 | 55.51057 | 72 ft | 4 kts | 201° |
| 2026-05-05 04:12 | -20.88943 | 55.51066 | 64 ft | 4 kts | 190° |
| 2026-05-05 04:12 | -20.88917 | 55.51067 | 65 ft | 4 kts | 157° |
| 2026-05-05 04:13 | -20.88904 | 55.51056 | 71 ft | 1 kts | 116° |
| 2026-05-05 04:13 | -20.88903 | 55.51053 | 75 ft | 0 kts | 116° |
| 2026-05-05 04:16 | -20.88904 | 55.51056 | 67 ft | 1 kts | 116° |
| 2026-05-05 04:16 | -20.88910 | 55.51068 | 67 ft | 3 kts | 116° |
| 2026-05-05 04:16 | -20.88920 | 55.51090 | 72 ft | 4 kts | 116° |
| 2026-05-05 04:17 | -20.88935 | 55.51121 | 67 ft | 4 kts | 116° |
| 2026-05-05 04:17 | -20.88940 | 55.51157 | 65 ft | 5 kts | 74° |
| 2026-05-05 04:17 | -20.88906 | 55.51172 | 68 ft | 6 kts | 356° |
| 2026-05-05 04:17 | -20.88848 | 55.51153 | 59 ft | 12 kts | 341° |
| 2026-05-05 04:18 | -20.88788 | 55.51133 | 57 ft | 8 kts | 344° |
| 2026-05-05 04:18 | -20.88740 | 55.51097 | 61 ft | 10 kts | 303° |
| 2026-05-05 04:18 | -20.88731 | 55.51080 | 58 ft | 2 kts | 298° |
| 2026-05-05 04:18 | -20.88721 | 55.51058 | 55 ft | 5 kts | 298° |
| 2026-05-05 04:19 | -20.88698 | 55.51015 | 57 ft | 8 kts | 298° |
| 2026-05-05 04:19 | -20.88669 | 55.50948 | 58 ft | 12 kts | 295° |
| 2026-05-05 04:19 | -20.88627 | 55.50858 | 52 ft | 15 kts | 297° |
| 2026-05-05 04:19 | -20.88578 | 55.50751 | 51 ft | 17 kts | 296° |
| 2026-05-05 04:20 | -20.88540 | 55.50670 | 51 ft | 20 kts | 297° |
| 2026-05-05 04:20 | -20.88466 | 55.50518 | 48 ft | 14 kts | 308° |
| 2026-05-05 04:20 | -20.88405 | 55.50460 | 48 ft | 7 kts | 300° |
| 2026-05-05 04:20 | -20.88429 | 55.50445 | 49 ft | 5 kts | 181° |
| 2026-05-05 04:21 | -20.88444 | 55.50460 | 49 ft | 5 kts | 114° |
| 2026-05-05 04:21 | -20.88460 | 55.50499 | 47 ft | 7 kts | 117° |
| 2026-05-05 04:21 | -20.88485 | 55.50552 | 48 ft | 10 kts | 117° |
| 2026-05-05 04:21 | -20.88601 | 55.50799 | 50 ft | 75 kts | 116° |
| 2026-05-05 04:22 | -20.88936 | 55.51519 | 65 ft | 138 kts | 116° |
| 2026-05-05 04:22 | -20.89435 | 55.52564 | 301 ft | 165 kts | 121° |
| 2026-05-05 04:22 | -20.90017 | 55.53548 | 923 ft | 154 kts | 114° |
| 2026-05-05 04:22 | -20.90081 | 55.54683 | 1278 ft | 161 kts | 75° |
| 2026-05-05 04:23 | -20.89469 | 55.55764 | 1433 ft | 182 kts | 49° |
| 2026-05-05 04:23 | -20.88579 | 55.56807 | 1634 ft | 199 kts | 50° |
| 2026-05-05 04:23 | -20.87603 | 55.57982 | 1788 ft | 224 kts | 50° |
| 2026-05-05 04:23 | -20.86518 | 55.59303 | 2086 ft | 247 kts | 50° |
| 2026-05-05 04:24 | -20.85353 | 55.60724 | 2690 ft | 258 kts | 51° |
| 2026-05-05 04:24 | -20.84160 | 55.62180 | 3501 ft | 262 kts | 51° |
| 2026-05-05 04:24 | -20.82953 | 55.63656 | 4305 ft | 265 kts | 51° |
| 2026-05-05 04:25 | -20.80495 | 55.66670 | 5840 ft | 273 kts | 51° |
| 2026-05-05 04:25 | -20.79240 | 55.68212 | 6591 ft | 276 kts | 51° |
| 2026-05-05 04:25 | -20.77968 | 55.69775 | 7303 ft | 280 kts | 51° |
| 2026-05-05 04:25 | -20.76682 | 55.71352 | 7983 ft | 284 kts | 51° |
| 2026-05-05 04:26 | -20.75375 | 55.72954 | 8654 ft | 287 kts | 51° |
| 2026-05-05 04:26 | -20.74055 | 55.74568 | 9305 ft | 290 kts | 51° |
| 2026-05-05 04:26 | -20.72712 | 55.76208 | 9940 ft | 295 kts | 51° |
| 2026-05-05 04:26 | -20.71332 | 55.77896 | 10248 ft | 311 kts | 51° |
| 2026-05-05 04:27 | -20.69865 | 55.79698 | 10388 ft | 331 kts | 51° |
| 2026-05-05 04:27 | -20.68320 | 55.81598 | 10660 ft | 343 kts | 51° |
| 2026-05-05 04:27 | -20.66742 | 55.83533 | 11170 ft | 348 kts | 51° |
| 2026-05-05 04:27 | -20.65161 | 55.85462 | 11696 ft | 351 kts | 50° |
| 2026-05-05 04:28 | -20.63577 | 55.87395 | 12221 ft | 354 kts | 50° |
| 2026-05-05 04:28 | -20.62356 | 55.88888 | 12613 ft | 356 kts | 50° |
| 2026-05-05 04:28 | -20.60694 | 55.90872 | 13106 ft | 360 kts | 49° |
| 2026-05-05 04:28 | -20.58978 | 55.92842 | 13592 ft | 364 kts | 48° |
| 2026-05-05 04:29 | -20.57229 | 55.94812 | 14072 ft | 367 kts | 48° |
| 2026-05-05 04:29 | -20.55465 | 55.96789 | 14547 ft | 369 kts | 48° |
| 2026-05-05 04:29 | -20.53684 | 55.98784 | 15000 ft | 373 kts | 48° |
| 2026-05-05 04:29 | -20.51892 | 56.00800 | 15447 ft | 376 kts | 48° |
| 2026-05-05 04:30 | -20.50090 | 56.02838 | 15882 ft | 379 kts | 48° |
| 2026-05-05 04:30 | -20.48280 | 56.04895 | 16320 ft | 382 kts | 48° |
| 2026-05-05 04:30 | -20.46454 | 56.06969 | 16740 ft | 385 kts | 48° |
| 2026-05-05 04:30 | -20.44615 | 56.09056 | 17152 ft | 388 kts | 48° |
| 2026-05-05 04:31 | -20.42747 | 56.11151 | 17554 ft | 391 kts | 45° |
| 2026-05-05 04:31 | -20.40631 | 56.12995 | 17941 ft | 396 kts | 36° |
| 2026-05-05 04:31 | -20.38386 | 56.14661 | 18318 ft | 399 kts | 36° |
| 2026-05-05 04:31 | -20.36101 | 56.16355 | 18707 ft | 402 kts | 36° |
| 2026-05-05 04:32 | -20.33799 | 56.18061 | 19128 ft | 404 kts | 36° |
| 2026-05-05 04:32 | -20.31488 | 56.19773 | 19540 ft | 406 kts | 36° |
| 2026-05-05 04:32 | -20.29160 | 56.21499 | 19932 ft | 408 kts | 36° |
| 2026-05-05 04:32 | -20.26822 | 56.23237 | 20335 ft | 411 kts | 36° |
| 2026-05-05 04:33 | -20.24476 | 56.24983 | 20720 ft | 413 kts | 36° |
| 2026-05-05 04:33 | -20.22113 | 56.26738 | 21110 ft | 415 kts | 36° |
| 2026-05-05 04:33 | -20.19737 | 56.28499 | 21488 ft | 417 kts | 36° |
| 2026-05-05 04:33 | -20.17349 | 56.30269 | 21851 ft | 419 kts | 36° |
| 2026-05-05 04:34 | -20.14950 | 56.32050 | 22199 ft | 421 kts | 36° |
| 2026-05-05 04:34 | -20.12541 | 56.33840 | 22566 ft | 423 kts | 36° |
| 2026-05-05 04:34 | -20.10123 | 56.35636 | 22901 ft | 425 kts | 36° |
| 2026-05-05 04:34 | -20.07693 | 56.37440 | 23247 ft | 427 kts | 35° |
| 2026-05-05 04:35 | -20.05247 | 56.39253 | 23574 ft | 429 kts | 35° |
| 2026-05-05 04:35 | -20.02785 | 56.41073 | 23920 ft | 431 kts | 35° |
| 2026-05-05 04:35 | -20.00317 | 56.42891 | 24244 ft | 433 kts | 35° |
| 2026-05-05 04:35 | -19.97833 | 56.44722 | 24561 ft | 435 kts | 35° |
| 2026-05-05 04:36 | -19.95345 | 56.46562 | 24873 ft | 437 kts | 35° |
| 2026-05-05 04:36 | -19.92837 | 56.48415 | 25177 ft | 439 kts | 35° |
| 2026-05-05 04:36 | -19.90356 | 56.50252 | 25461 ft | 442 kts | 35° |
| 2026-05-05 04:36 | -19.87797 | 56.52144 | 25748 ft | 443 kts | 35° |
| 2026-05-05 04:37 | -19.85288 | 56.53997 | 26026 ft | 446 kts | 34° |
| 2026-05-05 04:37 | -19.82733 | 56.55880 | 26292 ft | 448 kts | 34° |
| 2026-05-05 04:37 | -19.80169 | 56.57770 | 26554 ft | 450 kts | 34° |
| 2026-05-05 04:37 | -19.77589 | 56.59672 | 26816 ft | 452 kts | 34° |
| 2026-05-05 04:38 | -19.74998 | 56.61577 | 27070 ft | 454 kts | 34° |
| 2026-05-05 04:38 | -19.72393 | 56.63494 | 27327 ft | 456 kts | 34° |
| 2026-05-05 04:38 | -19.69777 | 56.65418 | 27595 ft | 458 kts | 34° |
| 2026-05-05 04:38 | -19.67149 | 56.67350 | 27844 ft | 460 kts | 34° |
| 2026-05-05 04:39 | -19.64508 | 56.69292 | 28094 ft | 463 kts | 34° |
| 2026-05-05 04:39 | -19.61854 | 56.71243 | 28346 ft | 465 kts | 34° |
| 2026-05-05 04:39 | -19.59191 | 56.73199 | 28613 ft | 467 kts | 34° |
| 2026-05-05 04:39 | -19.56521 | 56.75161 | 28965 ft | 466 kts | 34° |
| 2026-05-05 04:40 | -19.53849 | 56.77122 | 29325 ft | 466 kts | 33° |
| 2026-05-05 04:40 | -19.51185 | 56.79075 | 29679 ft | 466 kts | 33° |
| 2026-05-05 04:40 | -19.48525 | 56.81027 | 30036 ft | 465 kts | 33° |
| 2026-05-05 04:40 | -19.45893 | 56.82956 | 30373 ft | 466 kts | 33° |
| 2026-05-05 04:41 | -19.43230 | 56.84907 | 30691 ft | 466 kts | 33° |
| 2026-05-05 04:41 | -19.40565 | 56.86862 | 31006 ft | 466 kts | 33° |
| 2026-05-05 04:41 | -19.37897 | 56.88823 | 31337 ft | 466 kts | 33° |
| 2026-05-05 04:41 | -19.35227 | 56.90782 | 31645 ft | 467 kts | 33° |
| 2026-05-05 04:42 | -19.32551 | 56.92742 | 31957 ft | 467 kts | 33° |
| 2026-05-05 04:42 | -19.29871 | 56.94703 | 32255 ft | 468 kts | 32° |
| 2026-05-05 04:42 | -19.27192 | 56.96664 | 32554 ft | 468 kts | 32° |
| 2026-05-05 04:42 | -19.24512 | 56.98622 | 32857 ft | 469 kts | 32° |
| 2026-05-05 04:43 | -19.21827 | 57.00582 | 33177 ft | 469 kts | 32° |
| 2026-05-05 04:43 | -19.19140 | 57.02542 | 33470 ft | 469 kts | 32° |
| 2026-05-05 04:43 | -19.16456 | 57.04503 | 33754 ft | 469 kts | 32° |
| 2026-05-05 04:43 | -19.13770 | 57.06468 | 34046 ft | 469 kts | 32° |
| 2026-05-05 04:44 | -19.11089 | 57.08430 | 34299 ft | 469 kts | 32° |
| 2026-05-05 04:44 | -19.08404 | 57.10394 | 34558 ft | 469 kts | 32° |
| 2026-05-05 04:44 | -19.05721 | 57.12353 | 34820 ft | 469 kts | 32° |
| 2026-05-05 04:44 | -19.03033 | 57.14313 | 34976 ft | 470 kts | 31° |
| 2026-05-05 04:45 | -19.00320 | 57.16286 | 35012 ft | 475 kts | 31° |
| 2026-05-05 04:45 | -18.94870 | 57.20250 | 35012 ft | 480 kts | 31° |
| 2026-05-05 04:46 | -18.89351 | 57.24260 | 35005 ft | 481 kts | 31° |
| 2026-05-05 04:46 | -18.83836 | 57.28264 | 35002 ft | 481 kts | 31° |
| 2026-05-05 04:47 | -18.78311 | 57.32275 | 35014 ft | 482 kts | 31° |
| 2026-05-05 04:47 | -18.72792 | 57.36285 | 35009 ft | 482 kts | 31° |
| 2026-05-05 04:48 | -18.67265 | 57.40302 | 35013 ft | 482 kts | 31° |
| 2026-05-05 04:48 | -18.61740 | 57.44300 | 35015 ft | 482 kts | 31° |
| 2026-05-05 04:49 | -18.56200 | 57.48299 | 35014 ft | 482 kts | 31° |
| 2026-05-05 04:49 | -18.50658 | 57.52302 | 35015 ft | 482 kts | 31° |
| 2026-05-05 04:50 | -18.45131 | 57.56306 | 35019 ft | 483 kts | 31° |
| 2026-05-05 04:50 | -18.39590 | 57.60320 | 35019 ft | 483 kts | 31° |
| 2026-05-05 04:51 | -18.34042 | 57.64318 | 35023 ft | 483 kts | 31° |
| 2026-05-05 04:51 | -18.28526 | 57.68290 | 35019 ft | 484 kts | 31° |
| 2026-05-05 04:52 | -18.22973 | 57.72289 | 35019 ft | 484 kts | 31° |
| 2026-05-05 04:52 | -18.17421 | 57.76297 | 35018 ft | 484 kts | 31° |
| 2026-05-05 04:53 | -18.11861 | 57.80301 | 35021 ft | 484 kts | 31° |
| 2026-05-05 04:53 | -18.06299 | 57.84295 | 35027 ft | 484 kts | 31° |
| 2026-05-05 04:54 | -18.00724 | 57.88291 | 35023 ft | 485 kts | 31° |
| 2026-05-05 04:54 | -17.95157 | 57.92291 | 35020 ft | 484 kts | 31° |
| 2026-05-05 04:55 | -17.89595 | 57.96284 | 35025 ft | 484 kts | 31° |
| 2026-05-05 04:55 | -17.84030 | 58.00275 | 35020 ft | 484 kts | 31° |
| 2026-05-05 04:56 | -17.78455 | 58.04261 | 35016 ft | 484 kts | 31° |
| 2026-05-05 04:56 | -17.72891 | 58.08238 | 35014 ft | 484 kts | 31° |
| 2026-05-05 04:57 | -17.67363 | 58.12189 | 35013 ft | 484 kts | 31° |
| 2026-05-05 04:57 | -17.61757 | 58.16199 | 35017 ft | 484 kts | 31° |
| 2026-05-05 04:58 | -17.56224 | 58.20148 | 35017 ft | 484 kts | 31° |
| 2026-05-05 04:58 | -17.50658 | 58.24122 | 35015 ft | 483 kts | 31° |
| 2026-05-05 04:59 | -17.45094 | 58.28086 | 35012 ft | 483 kts | 31° |
| 2026-05-05 04:59 | -17.39535 | 58.32038 | 35015 ft | 483 kts | 31° |
| 2026-05-05 05:00 | -17.33973 | 58.35990 | 35012 ft | 483 kts | 31° |
| 2026-05-05 05:00 | -17.28417 | 58.39949 | 35014 ft | 483 kts | 31° |
| 2026-05-05 05:01 | -17.22857 | 58.43906 | 35016 ft | 483 kts | 31° |
| 2026-05-05 05:01 | -17.17329 | 58.47823 | 35018 ft | 482 kts | 31° |
| 2026-05-05 05:02 | -17.11777 | 58.51755 | 35021 ft | 482 kts | 31° |
| 2026-05-05 05:02 | -17.06228 | 58.55699 | 35025 ft | 482 kts | 31° |
| 2026-05-05 05:03 | -17.00675 | 58.59644 | 35021 ft | 482 kts | 31° |
| 2026-05-05 05:03 | -16.95124 | 58.63569 | 35022 ft | 482 kts | 31° |
| 2026-05-05 05:04 | -16.89576 | 58.67495 | 35018 ft | 482 kts | 31° |
| 2026-05-05 05:04 | -16.84028 | 58.71417 | 35021 ft | 481 kts | 31° |
| 2026-05-05 05:05 | -16.78483 | 58.75325 | 35009 ft | 480 kts | 31° |
| 2026-05-05 05:05 | -16.72941 | 58.79240 | 35008 ft | 480 kts | 31° |
| 2026-05-05 05:06 | -16.67438 | 58.83126 | 35011 ft | 480 kts | 31° |
| 2026-05-05 05:06 | -16.61902 | 58.87031 | 35012 ft | 481 kts | 31° |
| 2026-05-05 05:07 | -16.56367 | 58.90938 | 35015 ft | 480 kts | 31° |
| 2026-05-05 05:07 | -16.50825 | 58.94828 | 35011 ft | 480 kts | 31° |
| 2026-05-05 05:08 | -16.46224 | 58.98067 | 35016 ft | 480 kts | 31° |
| 2026-05-05 05:08 | -16.39796 | 59.02590 | 35014 ft | 480 kts | 31° |
| 2026-05-05 05:09 | -16.34260 | 59.06470 | 35017 ft | 480 kts | 31° |
| 2026-05-05 05:09 | -16.29619 | 59.09729 | 35021 ft | 480 kts | 31° |
| 2026-05-05 05:10 | -16.24096 | 59.13612 | 35025 ft | 479 kts | 31° |
| 2026-05-05 05:10 | -16.18604 | 59.17461 | 35027 ft | 479 kts | 31° |
| 2026-05-05 05:11 | -16.13068 | 59.21335 | 35027 ft | 478 kts | 31° |
| 2026-05-05 05:11 | -16.07551 | 59.25199 | 35025 ft | 478 kts | 31° |
| 2026-05-05 05:12 | -16.02035 | 59.29063 | 35022 ft | 478 kts | 31° |
| 2026-05-05 05:12 | -15.96521 | 59.32926 | 35022 ft | 477 kts | 31° |
| 2026-05-05 05:13 | -15.91004 | 59.36776 | 35026 ft | 476 kts | 31° |
| 2026-05-05 05:13 | -15.85505 | 59.40615 | 35026 ft | 476 kts | 31° |
| 2026-05-05 05:14 | -15.80014 | 59.44443 | 35024 ft | 475 kts | 31° |
| 2026-05-05 05:14 | -15.74567 | 59.48250 | 35022 ft | 475 kts | 31° |
| 2026-05-05 05:15 | -15.69079 | 59.52081 | 35017 ft | 474 kts | 31° |
| 2026-05-05 05:15 | -15.63590 | 59.55896 | 35019 ft | 475 kts | 31° |
| 2026-05-05 05:16 | -15.58095 | 59.59712 | 35017 ft | 475 kts | 31° |
| 2026-05-05 05:16 | -15.52609 | 59.63529 | 35018 ft | 475 kts | 31° |
| 2026-05-05 05:17 | -15.47116 | 59.67346 | 35015 ft | 475 kts | 31° |
| 2026-05-05 05:17 | -15.41622 | 59.71155 | 35014 ft | 475 kts | 31° |
| 2026-05-05 05:18 | -15.36172 | 59.74949 | 35014 ft | 475 kts | 31° |
| 2026-05-05 05:18 | -15.30682 | 59.78768 | 35016 ft | 475 kts | 31° |
| 2026-05-05 05:19 | -15.25190 | 59.82569 | 35019 ft | 475 kts | 31° |
| 2026-05-05 05:19 | -15.19704 | 59.86370 | 35020 ft | 474 kts | 31° |
| 2026-05-05 05:20 | -15.14226 | 59.90167 | 35020 ft | 473 kts | 31° |
| 2026-05-05 05:20 | -15.08749 | 59.93948 | 35019 ft | 473 kts | 31° |
| 2026-05-05 05:21 | -15.03277 | 59.97729 | 35027 ft | 473 kts | 31° |
| 2026-05-05 05:21 | -14.97829 | 60.01553 | 35020 ft | 473 kts | 32° |
| 2026-05-05 05:22 | -14.92568 | 60.05674 | 35021 ft | 474 kts | 35° |
| 2026-05-05 05:22 | -14.87442 | 60.09879 | 35020 ft | 473 kts | 35° |
| 2026-05-05 05:23 | -14.82250 | 60.14049 | 35022 ft | 472 kts | 34° |
| 2026-05-05 05:23 | -14.77015 | 60.18152 | 35019 ft | 472 kts | 34° |
| 2026-05-05 05:24 | -14.71781 | 60.22240 | 35014 ft | 471 kts | 34° |
| 2026-05-05 05:24 | -14.66566 | 60.26342 | 35010 ft | 471 kts | 34° |
| 2026-05-05 05:25 | -14.61362 | 60.30448 | 35013 ft | 470 kts | 34° |
| 2026-05-05 05:25 | -14.56153 | 60.34540 | 35014 ft | 470 kts | 34° |
| 2026-05-05 05:26 | -14.50983 | 60.38607 | 35015 ft | 470 kts | 34° |
| 2026-05-05 05:26 | -14.45785 | 60.42697 | 35009 ft | 470 kts | 34° |
| 2026-05-05 05:27 | -14.40579 | 60.46782 | 35008 ft | 470 kts | 34° |
| 2026-05-05 05:27 | -14.32776 | 60.52897 | 35012 ft | 469 kts | 34° |
| 2026-05-05 05:28 | -14.27576 | 60.56974 | 35009 ft | 469 kts | 34° |
| 2026-05-05 05:28 | -14.22373 | 60.61045 | 35010 ft | 470 kts | 34° |
| 2026-05-05 05:29 | -14.17165 | 60.65117 | 35010 ft | 470 kts | 34° |
| 2026-05-05 05:29 | -14.11983 | 60.69168 | 35013 ft | 470 kts | 34° |
| 2026-05-05 05:30 | -14.06770 | 60.73234 | 35010 ft | 470 kts | 34° |
| 2026-05-05 05:30 | -14.01563 | 60.77300 | 35005 ft | 470 kts | 34° |
| 2026-05-05 05:31 | -13.96364 | 60.81367 | 35008 ft | 469 kts | 34° |
| 2026-05-05 05:31 | -13.91173 | 60.85436 | 35010 ft | 468 kts | 34° |
| 2026-05-05 05:32 | -13.85988 | 60.89480 | 35002 ft | 467 kts | 34° |
| 2026-05-05 05:32 | -13.80807 | 60.93514 | 35008 ft | 467 kts | 34° |
| 2026-05-05 05:33 | -13.75628 | 60.97543 | 35007 ft | 466 kts | 34° |
| 2026-05-05 05:33 | -13.70448 | 61.01560 | 35004 ft | 466 kts | 34° |
| 2026-05-05 05:34 | -13.65308 | 61.05561 | 35005 ft | 466 kts | 34° |
| 2026-05-05 05:34 | -13.60141 | 61.09583 | 34999 ft | 465 kts | 34° |
| 2026-05-05 05:35 | -13.54979 | 61.13604 | 35005 ft | 465 kts | 34° |
| 2026-05-05 05:35 | -13.49804 | 61.17620 | 34998 ft | 465 kts | 34° |
| 2026-05-05 05:36 | -13.44636 | 61.21624 | 34997 ft | 465 kts | 34° |
| 2026-05-05 05:36 | -13.39504 | 61.25607 | 35000 ft | 465 kts | 34° |
| 2026-05-05 05:37 | -13.34341 | 61.29613 | 34995 ft | 465 kts | 34° |
| 2026-05-05 05:37 | -13.29180 | 61.33609 | 34987 ft | 465 kts | 34° |
| 2026-05-05 05:38 | -13.24028 | 61.37609 | 34985 ft | 464 kts | 34° |
| 2026-05-05 05:38 | -13.18863 | 61.41607 | 35001 ft | 464 kts | 34° |
| 2026-05-05 05:39 | -13.13701 | 61.45592 | 34988 ft | 464 kts | 34° |
| 2026-05-05 05:39 | -13.08543 | 61.49574 | 34985 ft | 464 kts | 34° |
| 2026-05-05 05:40 | -13.03395 | 61.53566 | 34987 ft | 464 kts | 34° |
| 2026-05-05 05:40 | -12.98278 | 61.57527 | 34986 ft | 463 kts | 34° |
| 2026-05-05 05:41 | -12.93118 | 61.61511 | 34988 ft | 463 kts | 34° |
| 2026-05-05 05:41 | -12.87960 | 61.65475 | 34985 ft | 463 kts | 34° |
| 2026-05-05 05:42 | -12.82817 | 61.69439 | 34986 ft | 463 kts | 34° |
| 2026-05-05 05:42 | -12.77673 | 61.73405 | 34986 ft | 463 kts | 34° |
| 2026-05-05 05:43 | -12.72532 | 61.77377 | 34986 ft | 462 kts | 34° |
| 2026-05-05 05:43 | -12.67394 | 61.81336 | 34984 ft | 462 kts | 35° |
| 2026-05-05 05:44 | -12.62253 | 61.85290 | 34979 ft | 462 kts | 34° |
| 2026-05-05 05:44 | -12.57146 | 61.89214 | 34981 ft | 462 kts | 35° |
| 2026-05-05 05:45 | -12.52019 | 61.93168 | 34977 ft | 461 kts | 35° |
| 2026-05-05 05:45 | -12.46888 | 61.97110 | 34971 ft | 461 kts | 35° |
| 2026-05-05 05:46 | -12.41758 | 62.01043 | 34969 ft | 460 kts | 35° |
| 2026-05-05 05:46 | -12.36635 | 62.04982 | 34968 ft | 460 kts | 35° |
| 2026-05-05 05:47 | -12.31507 | 62.08927 | 34968 ft | 461 kts | 35° |
| 2026-05-05 05:47 | -12.26377 | 62.12858 | 34969 ft | 461 kts | 35° |
| 2026-05-05 05:48 | -12.21251 | 62.16789 | 34970 ft | 460 kts | 35° |
| 2026-05-05 05:48 | -12.16124 | 62.20712 | 34970 ft | 460 kts | 35° |
| 2026-05-05 05:49 | -12.10996 | 62.24631 | 34970 ft | 460 kts | 35° |
| 2026-05-05 05:49 | -12.05870 | 62.28556 | 34971 ft | 460 kts | 35° |
| 2026-05-05 05:50 | -12.00782 | 62.32452 | 34972 ft | 461 kts | 35° |
| 2026-05-05 05:50 | -11.95616 | 62.36400 | 34970 ft | 460 kts | 35° |
| 2026-05-05 05:51 | -11.90524 | 62.40292 | 34967 ft | 460 kts | 35° |
| 2026-05-05 05:51 | -11.85397 | 62.44212 | 34966 ft | 460 kts | 35° |
| 2026-05-05 05:52 | -11.80275 | 62.48121 | 34967 ft | 460 kts | 35° |
| 2026-05-05 05:52 | -11.75151 | 62.52033 | 34967 ft | 460 kts | 35° |
| 2026-05-05 05:53 | -11.70024 | 62.55944 | 34967 ft | 460 kts | 35° |
| 2026-05-05 05:53 | -11.64893 | 62.59850 | 34968 ft | 460 kts | 35° |
| 2026-05-05 05:54 | -11.59761 | 62.63757 | 34969 ft | 460 kts | 35° |
| 2026-05-05 05:54 | -11.54642 | 62.67661 | 34970 ft | 460 kts | 35° |
| 2026-05-05 05:55 | -11.49521 | 62.71565 | 34970 ft | 459 kts | 35° |
| 2026-05-05 05:55 | -11.44411 | 62.75455 | 34968 ft | 458 kts | 35° |
| 2026-05-05 05:56 | -11.39333 | 62.79328 | 34968 ft | 459 kts | 35° |
| 2026-05-05 05:56 | -11.34222 | 62.83212 | 34970 ft | 458 kts | 35° |
| 2026-05-05 05:57 | -11.29112 | 62.87096 | 34967 ft | 458 kts | 35° |
| 2026-05-05 05:57 | -11.24830 | 62.90349 | 34965 ft | 458 kts | 35° |
| 2026-05-05 05:58 | -11.19721 | 62.94222 | 34962 ft | 457 kts | 35° |
| 2026-05-05 05:58 | -11.14622 | 62.98096 | 34958 ft | 457 kts | 35° |
| 2026-05-05 05:59 | -11.09519 | 63.01965 | 34958 ft | 457 kts | 35° |
| 2026-05-05 05:59 | -11.04456 | 63.05807 | 34957 ft | 457 kts | 35° |
| 2026-05-05 06:00 | -10.99353 | 63.09671 | 34959 ft | 457 kts | 36° |
| 2026-05-05 06:00 | -10.94249 | 63.13538 | 34962 ft | 457 kts | 35° |
| 2026-05-05 06:01 | -10.89136 | 63.17407 | 34963 ft | 457 kts | 35° |
| 2026-05-05 06:01 | -10.84034 | 63.21265 | 34964 ft | 457 kts | 36° |
| 2026-05-05 06:02 | -10.78944 | 63.25121 | 34962 ft | 456 kts | 36° |
| 2026-05-05 06:02 | -10.73843 | 63.28979 | 34961 ft | 457 kts | 36° |
| 2026-05-05 06:03 | -10.68749 | 63.32833 | 34960 ft | 456 kts | 36° |
| 2026-05-05 06:03 | -10.63680 | 63.36661 | 34958 ft | 456 kts | 36° |
| 2026-05-05 06:04 | -10.58561 | 63.40539 | 34950 ft | 456 kts | 36° |
| 2026-05-05 06:04 | -10.53499 | 63.44364 | 34940 ft | 456 kts | 36° |
| 2026-05-05 06:05 | -10.48407 | 63.48204 | 34934 ft | 456 kts | 36° |
| 2026-05-05 06:05 | -10.43322 | 63.52042 | 34930 ft | 455 kts | 36° |
| 2026-05-05 06:06 | -10.38241 | 63.55877 | 34926 ft | 455 kts | 36° |
| 2026-05-05 06:06 | -10.33160 | 63.59704 | 34926 ft | 455 kts | 36° |
| 2026-05-05 06:07 | -10.28070 | 63.63534 | 34927 ft | 455 kts | 36° |
| 2026-05-05 06:07 | -10.22990 | 63.67364 | 34924 ft | 455 kts | 36° |
| 2026-05-05 06:08 | -10.17911 | 63.71193 | 34919 ft | 455 kts | 36° |
| 2026-05-05 06:08 | -10.12867 | 63.74992 | 34918 ft | 454 kts | 36° |
| 2026-05-05 06:09 | -10.07787 | 63.78806 | 34916 ft | 454 kts | 36° |
| 2026-05-05 06:09 | -10.02714 | 63.82617 | 34915 ft | 454 kts | 36° |
| 2026-05-05 06:10 | -9.97635 | 63.86438 | 34923 ft | 454 kts | 36° |
| 2026-05-05 06:10 | -9.92570 | 63.90254 | 34925 ft | 453 kts | 36° |
| 2026-05-05 06:11 | -9.87511 | 63.94047 | 34929 ft | 452 kts | 35° |
| 2026-05-05 06:11 | -9.82451 | 63.97829 | 34924 ft | 452 kts | 36° |
| 2026-05-05 06:12 | -9.77400 | 64.01624 | 34924 ft | 452 kts | 36° |
| 2026-05-05 06:12 | -9.72353 | 64.05418 | 34923 ft | 451 kts | 36° |
| 2026-05-05 06:13 | -9.67334 | 64.09177 | 34922 ft | 451 kts | 36° |
| 2026-05-05 06:13 | -9.62286 | 64.12960 | 34920 ft | 451 kts | 36° |
| 2026-05-05 06:14 | -9.57226 | 64.16751 | 34918 ft | 451 kts | 36° |
| 2026-05-05 06:14 | -9.52176 | 64.20537 | 34920 ft | 451 kts | 36° |
| 2026-05-05 06:15 | -9.47132 | 64.24320 | 34920 ft | 451 kts | 36° |
| 2026-05-05 06:15 | -9.42082 | 64.28105 | 34921 ft | 451 kts | 36° |
| 2026-05-05 06:16 | -9.37037 | 64.31881 | 34921 ft | 450 kts | 36° |
| 2026-05-05 06:16 | -9.32027 | 64.35622 | 34920 ft | 450 kts | 36° |
| 2026-05-05 06:17 | -9.26988 | 64.39385 | 34918 ft | 450 kts | 36° |
| 2026-05-05 06:17 | -9.21958 | 64.43153 | 34912 ft | 449 kts | 36° |
| 2026-05-05 06:18 | -9.16930 | 64.46913 | 34913 ft | 449 kts | 36° |
| 2026-05-05 06:18 | -9.11902 | 64.50662 | 34913 ft | 449 kts | 36° |
| 2026-05-05 06:19 | -9.06883 | 64.54414 | 34910 ft | 448 kts | 36° |
| 2026-05-05 06:19 | -9.01863 | 64.58168 | 34909 ft | 448 kts | 36° |
| 2026-05-05 06:20 | -8.96871 | 64.61890 | 34907 ft | 448 kts | 36° |
| 2026-05-05 06:20 | -8.91849 | 64.65628 | 34908 ft | 448 kts | 36° |
| 2026-05-05 06:21 | -8.86816 | 64.69377 | 34909 ft | 448 kts | 36° |
| 2026-05-05 06:21 | -8.81795 | 64.73119 | 34907 ft | 448 kts | 36° |
| 2026-05-05 06:22 | -8.76776 | 64.76857 | 34907 ft | 448 kts | 36° |
| 2026-05-05 06:22 | -8.71760 | 64.80600 | 34907 ft | 448 kts | 36° |
| 2026-05-05 06:23 | -8.66749 | 64.84336 | 34904 ft | 448 kts | 36° |
| 2026-05-05 06:23 | -8.61727 | 64.88066 | 34905 ft | 448 kts | 36° |
| 2026-05-05 06:24 | -8.56732 | 64.91773 | 34910 ft | 448 kts | 36° |
| 2026-05-05 06:24 | -8.51715 | 64.95513 | 34906 ft | 448 kts | 36° |
| 2026-05-05 06:25 | -8.46693 | 64.99255 | 34907 ft | 448 kts | 36° |
| 2026-05-05 06:25 | -8.41664 | 65.02990 | 34905 ft | 448 kts | 36° |
| 2026-05-05 06:26 | -8.36628 | 65.06722 | 34903 ft | 449 kts | 36° |
| 2026-05-05 06:26 | -8.31600 | 65.10455 | 34904 ft | 448 kts | 36° |
| 2026-05-05 06:27 | -8.24069 | 65.16055 | 34904 ft | 448 kts | 36° |
| 2026-05-05 06:28 | -8.19045 | 65.19786 | 34902 ft | 448 kts | 36° |
| 2026-05-05 06:28 | -8.14023 | 65.23517 | 34904 ft | 448 kts | 36° |
| 2026-05-05 06:29 | -8.09004 | 65.27241 | 34903 ft | 448 kts | 36° |
| 2026-05-05 06:29 | -8.04013 | 65.30929 | 34901 ft | 448 kts | 36° |
| 2026-05-05 06:30 | -7.98981 | 65.34649 | 34900 ft | 448 kts | 36° |
| 2026-05-05 06:30 | -7.93949 | 65.38381 | 34902 ft | 448 kts | 36° |
| 2026-05-05 06:31 | -7.88925 | 65.42108 | 34900 ft | 448 kts | 36° |
| 2026-05-05 06:31 | -7.83905 | 65.45833 | 34895 ft | 447 kts | 36° |
| 2026-05-05 06:32 | -7.78916 | 65.49525 | 34894 ft | 448 kts | 36° |
| 2026-05-05 06:32 | -7.73888 | 65.53246 | 34893 ft | 448 kts | 36° |
| 2026-05-05 06:33 | -7.68867 | 65.56965 | 34892 ft | 447 kts | 36° |
| 2026-05-05 06:33 | -7.63840 | 65.60676 | 34891 ft | 448 kts | 36° |
| 2026-05-05 06:34 | -7.58819 | 65.64392 | 34891 ft | 448 kts | 36° |
| 2026-05-05 06:34 | -7.53799 | 65.68107 | 34892 ft | 448 kts | 36° |
| 2026-05-05 06:35 | -7.48769 | 65.71808 | 34893 ft | 448 kts | 36° |
| 2026-05-05 06:35 | -7.43770 | 65.75508 | 34892 ft | 448 kts | 36° |
| 2026-05-05 06:36 | -7.38754 | 65.79229 | 34891 ft | 448 kts | 36° |
| 2026-05-05 06:36 | -7.33732 | 65.82935 | 34891 ft | 448 kts | 36° |
| 2026-05-05 06:37 | -7.28690 | 65.86652 | 34888 ft | 448 kts | 36° |
| 2026-05-05 06:37 | -7.23656 | 65.90363 | 34888 ft | 448 kts | 36° |
| 2026-05-05 06:38 | -7.18619 | 65.94071 | 34887 ft | 448 kts | 36° |
| 2026-05-05 06:38 | -7.13591 | 65.97789 | 34890 ft | 448 kts | 36° |
| 2026-05-05 06:39 | -7.08559 | 66.01504 | 34891 ft | 448 kts | 36° |
| 2026-05-05 06:39 | -7.03566 | 66.05180 | 34890 ft | 448 kts | 36° |
| 2026-05-05 06:40 | -6.98534 | 66.08877 | 34889 ft | 447 kts | 36° |
| 2026-05-05 06:40 | -6.93520 | 66.12579 | 34888 ft | 447 kts | 36° |
| 2026-05-05 06:41 | -6.88506 | 66.16281 | 34890 ft | 447 kts | 36° |
| 2026-05-05 06:41 | -6.83485 | 66.19972 | 34890 ft | 447 kts | 36° |
| 2026-05-05 06:42 | -6.78468 | 66.23666 | 34891 ft | 447 kts | 36° |
| 2026-05-05 06:42 | -6.73456 | 66.27366 | 34890 ft | 446 kts | 36° |
| 2026-05-05 06:43 | -6.68448 | 66.31048 | 34885 ft | 446 kts | 36° |
| 2026-05-05 06:43 | -6.64279 | 66.34106 | 34880 ft | 446 kts | 36° |
| 2026-05-05 06:44 | -6.59265 | 66.37787 | 34875 ft | 446 kts | 36° |
| 2026-05-05 06:44 | -6.54250 | 66.41477 | 34877 ft | 446 kts | 36° |
| 2026-05-05 06:45 | -6.49240 | 66.45162 | 34879 ft | 446 kts | 36° |
| 2026-05-05 06:45 | -6.44232 | 66.48839 | 34875 ft | 446 kts | 36° |
| 2026-05-05 06:46 | -6.39226 | 66.52519 | 34874 ft | 446 kts | 36° |
| 2026-05-05 06:46 | -6.34248 | 66.56180 | 34873 ft | 446 kts | 36° |
| 2026-05-05 06:47 | -6.29203 | 66.59881 | 34877 ft | 446 kts | 36° |
| 2026-05-05 06:47 | -6.24193 | 66.63550 | 34874 ft | 446 kts | 36° |
| 2026-05-05 06:48 | -6.19219 | 66.67206 | 34877 ft | 446 kts | 36° |
| 2026-05-05 06:48 | -6.14211 | 66.70888 | 34876 ft | 446 kts | 36° |
| 2026-05-05 06:49 | -6.09195 | 66.74571 | 34876 ft | 446 kts | 36° |
| 2026-05-05 06:49 | -6.04184 | 66.78246 | 34879 ft | 446 kts | 36° |
| 2026-05-05 06:50 | -5.99165 | 66.81921 | 34878 ft | 446 kts | 36° |
| 2026-05-05 06:50 | -5.94159 | 66.85592 | 34876 ft | 446 kts | 36° |
| 2026-05-05 06:51 | -5.89147 | 66.89268 | 34874 ft | 446 kts | 36° |
| 2026-05-05 06:51 | -5.84132 | 66.92929 | 34870 ft | 446 kts | 36° |
| 2026-05-05 06:52 | -5.79115 | 66.96603 | 34871 ft | 446 kts | 36° |
| 2026-05-05 06:52 | -5.74107 | 67.00281 | 34874 ft | 446 kts | 36° |
| 2026-05-05 06:53 | -5.69086 | 67.03952 | 34876 ft | 447 kts | 36° |
| 2026-05-05 06:53 | -5.64067 | 67.07628 | 34870 ft | 446 kts | 36° |
| 2026-05-05 06:54 | -5.59058 | 67.11301 | 34873 ft | 446 kts | 36° |
| 2026-05-05 06:54 | -5.54041 | 67.14971 | 34874 ft | 446 kts | 36° |
| 2026-05-05 06:55 | -5.49016 | 67.18639 | 34870 ft | 446 kts | 36° |
| 2026-05-05 06:55 | -5.43995 | 67.22306 | 34870 ft | 446 kts | 36° |
| 2026-05-05 06:56 | -5.38975 | 67.25977 | 34871 ft | 446 kts | 36° |
| 2026-05-05 06:56 | -5.33996 | 67.29630 | 34871 ft | 446 kts | 36° |
| 2026-05-05 06:57 | -5.28979 | 67.33300 | 34867 ft | 446 kts | 36° |
| 2026-05-05 06:57 | -5.23961 | 67.36965 | 34863 ft | 446 kts | 36° |
| 2026-05-05 06:58 | -5.18938 | 67.40637 | 34863 ft | 446 kts | 36° |
| 2026-05-05 06:58 | -5.13913 | 67.44310 | 34864 ft | 447 kts | 36° |
| 2026-05-05 06:59 | -5.08888 | 67.47977 | 34866 ft | 447 kts | 36° |
| 2026-05-05 06:59 | -5.03854 | 67.51652 | 34868 ft | 447 kts | 36° |
| 2026-05-05 07:00 | -4.98857 | 67.55306 | 34871 ft | 448 kts | 36° |
| 2026-05-05 07:00 | -4.93822 | 67.58984 | 34871 ft | 447 kts | 36° |
| 2026-05-05 07:01 | -4.88788 | 67.62653 | 34869 ft | 447 kts | 36° |
| 2026-05-05 07:01 | -4.83746 | 67.66329 | 34864 ft | 448 kts | 36° |
| 2026-05-05 07:02 | -4.78706 | 67.69997 | 34864 ft | 448 kts | 36° |
| 2026-05-05 07:02 | -4.73654 | 67.73690 | 34862 ft | 449 kts | 36° |
| 2026-05-05 07:03 | -4.68605 | 67.77380 | 34862 ft | 449 kts | 35° |
| 2026-05-05 07:03 | -4.63543 | 67.81057 | 34859 ft | 449 kts | 36° |
| 2026-05-05 07:04 | -4.58490 | 67.84742 | 34853 ft | 449 kts | 36° |
| 2026-05-05 07:04 | -4.53470 | 67.88404 | 34851 ft | 449 kts | 36° |
| 2026-05-05 07:05 | -4.48421 | 67.92098 | 34852 ft | 449 kts | 36° |
| 2026-05-05 07:05 | -4.43368 | 67.95777 | 34852 ft | 449 kts | 36° |
| 2026-05-05 07:06 | -4.38318 | 67.99452 | 34849 ft | 449 kts | 36° |
| 2026-05-05 07:06 | -4.33256 | 68.03132 | 34850 ft | 448 kts | 36° |
| 2026-05-05 07:07 | -4.28225 | 68.06800 | 34846 ft | 447 kts | 36° |
| 2026-05-05 07:07 | -4.23191 | 68.10461 | 34839 ft | 447 kts | 36° |
| 2026-05-05 07:08 | -4.18187 | 68.14100 | 34835 ft | 448 kts | 36° |
| 2026-05-05 07:08 | -4.13150 | 68.17769 | 34830 ft | 448 kts | 36° |
| 2026-05-05 07:09 | -4.08109 | 68.21440 | 34833 ft | 448 kts | 36° |
| 2026-05-05 07:09 | -4.03058 | 68.25122 | 34834 ft | 449 kts | 36° |
| 2026-05-05 07:10 | -3.98016 | 68.28791 | 34824 ft | 448 kts | 36° |
| 2026-05-05 07:10 | -3.92958 | 68.32460 | 34830 ft | 449 kts | 36° |
| 2026-05-05 07:11 | -3.87942 | 68.36111 | 34833 ft | 449 kts | 36° |
| 2026-05-05 07:11 | -3.82878 | 68.39795 | 34839 ft | 449 kts | 36° |
| 2026-05-05 07:12 | -3.77825 | 68.43474 | 34842 ft | 449 kts | 36° |
| 2026-05-05 07:12 | -3.72763 | 68.47152 | 34841 ft | 449 kts | 36° |
| 2026-05-05 07:13 | -3.67718 | 68.50827 | 34837 ft | 448 kts | 36° |
| 2026-05-05 07:13 | -3.62673 | 68.54495 | 34835 ft | 448 kts | 36° |
| 2026-05-05 07:14 | -3.57659 | 68.58136 | 34836 ft | 447 kts | 36° |
| 2026-05-05 07:14 | -3.52617 | 68.61793 | 34836 ft | 447 kts | 36° |
| 2026-05-05 07:15 | -3.47577 | 68.65452 | 34835 ft | 447 kts | 36° |
| 2026-05-05 07:15 | -3.42527 | 68.69119 | 34835 ft | 447 kts | 36° |
| 2026-05-05 07:16 | -3.37496 | 68.72782 | 34832 ft | 447 kts | 36° |
| 2026-05-05 07:16 | -3.32502 | 68.76413 | 34830 ft | 446 kts | 36° |
| 2026-05-05 07:17 | -3.27470 | 68.80059 | 34832 ft | 447 kts | 36° |
| 2026-05-05 07:17 | -3.22434 | 68.83710 | 34818 ft | 447 kts | 36° |
| 2026-05-05 07:18 | -3.17407 | 68.87367 | 34830 ft | 447 kts | 36° |
| 2026-05-05 07:18 | -3.12373 | 68.91019 | 34831 ft | 446 kts | 36° |
| 2026-05-05 07:19 | -3.07352 | 68.94665 | 34830 ft | 446 kts | 36° |
| 2026-05-05 07:19 | -3.02324 | 68.98313 | 34821 ft | 446 kts | 36° |
| 2026-05-05 07:20 | -2.97301 | 69.01956 | 34818 ft | 446 kts | 36° |
| 2026-05-05 07:20 | -2.92284 | 69.05601 | 34823 ft | 446 kts | 36° |
| 2026-05-05 07:21 | -2.87267 | 69.09254 | 34817 ft | 446 kts | 36° |
| 2026-05-05 07:21 | -2.82256 | 69.12905 | 34825 ft | 445 kts | 36° |
| 2026-05-05 07:22 | -2.77244 | 69.16551 | 34817 ft | 445 kts | 36° |
| 2026-05-05 07:22 | -2.72259 | 69.20171 | 34826 ft | 445 kts | 36° |
| 2026-05-05 07:23 | -2.67233 | 69.23820 | 34828 ft | 446 kts | 36° |
| 2026-05-05 07:23 | -2.62212 | 69.27468 | 34812 ft | 446 kts | 36° |
| 2026-05-05 07:24 | -2.57198 | 69.31121 | 34810 ft | 446 kts | 36° |
| 2026-05-05 07:24 | -2.52175 | 69.34769 | 34831 ft | 446 kts | 36° |
| 2026-05-05 07:25 | -2.47184 | 69.38385 | 34834 ft | 446 kts | 36° |
| 2026-05-05 07:25 | -2.42169 | 69.42022 | 34887 ft | 445 kts | 36° |
| 2026-05-05 07:26 | -2.37157 | 69.45664 | 34888 ft | 445 kts | 36° |
| 2026-05-05 07:26 | -2.32139 | 69.49310 | 34877 ft | 445 kts | 36° |
| 2026-05-05 07:27 | -2.27145 | 69.52946 | 34873 ft | 444 kts | 36° |
| 2026-05-05 07:27 | -2.22134 | 69.56587 | 34882 ft | 445 kts | 36° |
| 2026-05-05 07:28 | -2.17119 | 69.60228 | 34886 ft | 446 kts | 36° |
| 2026-05-05 07:28 | -2.12095 | 69.63880 | 34891 ft | 446 kts | 36° |
| 2026-05-05 07:29 | -2.07067 | 69.67526 | 34894 ft | 447 kts | 36° |
| 2026-05-05 07:29 | -2.02029 | 69.71184 | 34896 ft | 447 kts | 36° |
| 2026-05-05 07:30 | -1.97040 | 69.74806 | 34895 ft | 446 kts | 36° |
| 2026-05-05 07:30 | -1.89506 | 69.80267 | 34894 ft | 446 kts | 36° |
| 2026-05-05 07:31 | -1.85296 | 69.83324 | 34891 ft | 446 kts | 36° |
| 2026-05-05 07:31 | -1.80306 | 69.86947 | 34893 ft | 446 kts | 36° |
| 2026-05-05 07:32 | -1.75280 | 69.90586 | 34893 ft | 446 kts | 36° |
| 2026-05-05 07:32 | -1.70263 | 69.94236 | 34895 ft | 446 kts | 36° |
| 2026-05-05 07:33 | -1.65245 | 69.97882 | 34892 ft | 445 kts | 36° |
| 2026-05-05 07:33 | -1.60232 | 70.01516 | 34890 ft | 445 kts | 36° |
| 2026-05-05 07:34 | -1.55218 | 70.05159 | 34892 ft | 446 kts | 36° |
| 2026-05-05 07:34 | -1.50184 | 70.08805 | 34895 ft | 446 kts | 36° |
| 2026-05-05 07:35 | -1.45154 | 70.12442 | 34902 ft | 445 kts | 36° |
| 2026-05-05 07:35 | -1.40152 | 70.16074 | 34884 ft | 443 kts | 36° |
| 2026-05-05 07:36 | -1.35200 | 70.19681 | 34876 ft | 444 kts | 36° |
| 2026-05-05 07:36 | -1.30194 | 70.23304 | 34876 ft | 443 kts | 36° |
| 2026-05-05 07:37 | -1.25201 | 70.26925 | 34870 ft | 444 kts | 36° |
| 2026-05-05 07:37 | -1.20200 | 70.30554 | 34876 ft | 445 kts | 36° |
| 2026-05-05 07:38 | -1.15194 | 70.34183 | 34871 ft | 445 kts | 36° |
| 2026-05-05 07:38 | -1.10180 | 70.37821 | 34874 ft | 445 kts | 36° |
| 2026-05-05 07:39 | -1.05155 | 70.41463 | 34879 ft | 446 kts | 36° |
| 2026-05-05 07:39 | -1.00130 | 70.45107 | 34883 ft | 446 kts | 36° |
| 2026-05-05 07:40 | -0.95132 | 70.48732 | 34883 ft | 446 kts | 36° |
| 2026-05-05 07:40 | -0.90109 | 70.52377 | 34884 ft | 446 kts | 36° |
| 2026-05-05 07:41 | -0.85083 | 70.56017 | 34881 ft | 446 kts | 36° |
| 2026-05-05 07:41 | -0.80059 | 70.59652 | 34880 ft | 446 kts | 36° |
| 2026-05-05 07:42 | -0.75035 | 70.63301 | 34880 ft | 446 kts | 36° |
| 2026-05-05 07:42 | -0.70011 | 70.66944 | 34881 ft | 446 kts | 36° |
| 2026-05-05 07:43 | -0.64982 | 70.70584 | 34881 ft | 446 kts | 36° |
| 2026-05-05 07:43 | -0.59961 | 70.74229 | 34883 ft | 446 kts | 36° |
| 2026-05-05 07:44 | -0.54973 | 70.77850 | 34886 ft | 446 kts | 36° |
| 2026-05-05 07:44 | -0.49951 | 70.81493 | 34889 ft | 445 kts | 36° |
| 2026-05-05 07:45 | -0.44937 | 70.85132 | 34891 ft | 445 kts | 36° |
| 2026-05-05 07:45 | -0.39908 | 70.88762 | 34892 ft | 445 kts | 36° |
| 2026-05-05 07:46 | -0.34889 | 70.92388 | 34891 ft | 445 kts | 36° |
| 2026-05-05 07:46 | -0.29879 | 70.96021 | 34890 ft | 445 kts | 36° |
| 2026-05-05 07:47 | -0.24878 | 70.99653 | 34887 ft | 444 kts | 36° |
| 2026-05-05 07:47 | -0.19876 | 71.03283 | 34888 ft | 444 kts | 36° |
| 2026-05-05 07:48 | -0.14879 | 71.06909 | 34889 ft | 444 kts | 36° |
| 2026-05-05 07:48 | -0.09879 | 71.10527 | 34889 ft | 444 kts | 36° |
| 2026-05-05 07:49 | -0.04885 | 71.14148 | 34888 ft | 443 kts | 36° |
| 2026-05-05 07:49 | 0.00076 | 71.17742 | 34889 ft | 443 kts | 36° |
| 2026-05-05 07:50 | 0.05065 | 71.21354 | 34888 ft | 443 kts | 36° |
| 2026-05-05 07:50 | 0.10052 | 71.24969 | 34886 ft | 442 kts | 36° |
| 2026-05-05 07:51 | 0.15034 | 71.28582 | 34886 ft | 442 kts | 36° |
| 2026-05-05 07:51 | 0.20005 | 71.32190 | 34880 ft | 442 kts | 36° |
| 2026-05-05 07:52 | 0.24986 | 71.35799 | 34879 ft | 442 kts | 36° |
| 2026-05-05 07:52 | 0.29965 | 71.39405 | 34878 ft | 442 kts | 36° |
| 2026-05-05 07:53 | 0.34946 | 71.43013 | 34879 ft | 442 kts | 36° |
| 2026-05-05 07:53 | 0.39924 | 71.46625 | 34880 ft | 442 kts | 36° |
| 2026-05-05 07:54 | 0.44868 | 71.50206 | 34876 ft | 442 kts | 36° |
| 2026-05-05 07:54 | 0.49848 | 71.53813 | 34879 ft | 442 kts | 36° |
| 2026-05-05 07:55 | 0.54820 | 71.57425 | 34884 ft | 441 kts | 36° |
| 2026-05-05 07:55 | 0.59783 | 71.61028 | 34882 ft | 441 kts | 36° |
| 2026-05-05 07:56 | 0.64758 | 71.64629 | 34882 ft | 442 kts | 36° |
| 2026-05-05 07:56 | 0.69739 | 71.68231 | 34882 ft | 442 kts | 36° |
| 2026-05-05 07:57 | 0.74715 | 71.71840 | 34888 ft | 442 kts | 36° |
| 2026-05-05 07:57 | 0.79673 | 71.75441 | 34888 ft | 442 kts | 36° |
| 2026-05-05 07:58 | 0.84649 | 71.79057 | 34891 ft | 443 kts | 36° |
| 2026-05-05 07:58 | 0.89636 | 71.82671 | 34890 ft | 443 kts | 36° |
| 2026-05-05 07:59 | 0.94628 | 71.86281 | 34890 ft | 442 kts | 36° |
| 2026-05-05 07:59 | 0.99615 | 71.89894 | 34892 ft | 442 kts | 36° |
| 2026-05-05 08:00 | 1.04588 | 71.93497 | 34888 ft | 442 kts | 36° |
| 2026-05-05 08:00 | 1.09569 | 71.97113 | 34891 ft | 442 kts | 36° |
| 2026-05-05 08:01 | 1.14547 | 72.00728 | 34894 ft | 442 kts | 36° |
| 2026-05-05 08:01 | 1.19527 | 72.04344 | 34893 ft | 442 kts | 36° |
| 2026-05-05 08:02 | 1.24513 | 72.07960 | 34894 ft | 443 kts | 36° |
| 2026-05-05 08:02 | 1.29505 | 72.11574 | 34892 ft | 443 kts | 36° |
| 2026-05-05 08:03 | 1.34460 | 72.15168 | 34897 ft | 443 kts | 37° |
| 2026-05-05 08:03 | 1.39442 | 72.18779 | 34899 ft | 442 kts | 37° |
| 2026-05-05 08:04 | 1.44421 | 72.22390 | 34900 ft | 443 kts | 37° |
| 2026-05-05 08:04 | 1.49411 | 72.26016 | 34900 ft | 442 kts | 37° |
| 2026-05-05 08:05 | 1.54390 | 72.29632 | 34901 ft | 442 kts | 37° |
| 2026-05-05 08:05 | 1.59368 | 72.33239 | 34902 ft | 442 kts | 36° |
| 2026-05-05 08:06 | 1.64349 | 72.36849 | 34899 ft | 442 kts | 37° |
| 2026-05-05 08:06 | 1.69322 | 72.40463 | 34898 ft | 442 kts | 37° |
| 2026-05-05 08:07 | 1.74274 | 72.44057 | 34897 ft | 442 kts | 37° |
| 2026-05-05 08:07 | 1.79259 | 72.47670 | 34898 ft | 442 kts | 37° |
| 2026-05-05 08:08 | 1.84229 | 72.51286 | 34900 ft | 442 kts | 37° |
| 2026-05-05 08:08 | 1.89201 | 72.54899 | 34907 ft | 442 kts | 36° |
| 2026-05-05 08:09 | 1.94186 | 72.58510 | 34910 ft | 442 kts | 36° |
| 2026-05-05 08:09 | 1.99144 | 72.62097 | 34913 ft | 442 kts | 37° |
| 2026-05-05 08:10 | 2.04126 | 72.65720 | 34910 ft | 443 kts | 37° |
| 2026-05-05 08:10 | 2.09099 | 72.69349 | 34910 ft | 442 kts | 37° |
| 2026-05-05 08:11 | 2.14078 | 72.72965 | 34907 ft | 442 kts | 37° |
| 2026-05-05 08:11 | 2.19065 | 72.76577 | 34900 ft | 443 kts | 36° |
| 2026-05-05 08:12 | 2.24063 | 72.80198 | 34900 ft | 444 kts | 37° |
| 2026-05-05 08:12 | 2.29058 | 72.83819 | 34908 ft | 443 kts | 36° |
| 2026-05-05 08:13 | 2.34043 | 72.87442 | 34921 ft | 442 kts | 37° |
| 2026-05-05 08:13 | 2.39303 | 72.90613 | 34899 ft | 444 kts | 22° |
| 2026-05-05 08:14 | 2.45110 | 72.92630 | 34887 ft | 444 kts | 19° |
| 2026-05-05 08:14 | 2.51002 | 72.94646 | 34890 ft | 444 kts | 19° |
| 2026-05-05 08:15 | 2.56794 | 72.96612 | 34881 ft | 441 kts | 20° |
| 2026-05-05 08:15 | 2.62613 | 72.98605 | 34882 ft | 443 kts | 20° |
| 2026-05-05 08:16 | 2.68447 | 73.00618 | 34889 ft | 444 kts | 20° |
| 2026-05-05 08:16 | 2.74294 | 73.02623 | 34890 ft | 444 kts | 20° |
| 2026-05-05 08:17 | 2.80147 | 73.04614 | 34894 ft | 445 kts | 20° |
| 2026-05-05 08:17 | 2.86012 | 73.06621 | 34897 ft | 445 kts | 20° |
| 2026-05-05 08:18 | 2.91881 | 73.08633 | 34896 ft | 446 kts | 20° |
| 2026-05-05 08:18 | 2.96755 | 73.10302 | 34901 ft | 446 kts | 20° |
| 2026-05-05 08:19 | 3.02633 | 73.12305 | 34907 ft | 446 kts | 20° |
| 2026-05-05 08:19 | 3.08507 | 73.14312 | 34911 ft | 446 kts | 20° |
| 2026-05-05 08:20 | 3.14382 | 73.16328 | 34915 ft | 446 kts | 20° |
| 2026-05-05 08:20 | 3.20261 | 73.18341 | 34920 ft | 447 kts | 20° |
| 2026-05-05 08:21 | 3.26149 | 73.20358 | 34922 ft | 447 kts | 20° |
| 2026-05-05 08:21 | 3.32038 | 73.22378 | 34923 ft | 448 kts | 20° |
| 2026-05-05 08:22 | 3.37930 | 73.24397 | 34924 ft | 447 kts | 20° |
| 2026-05-05 08:22 | 3.43831 | 73.26407 | 34922 ft | 448 kts | 20° |
| 2026-05-05 08:23 | 3.49687 | 73.28415 | 34921 ft | 448 kts | 20° |
| 2026-05-05 08:23 | 3.55575 | 73.30436 | 34921 ft | 448 kts | 20° |
| 2026-05-05 08:24 | 3.61477 | 73.32451 | 34921 ft | 448 kts | 20° |
| 2026-05-05 08:24 | 3.67369 | 73.34476 | 34923 ft | 448 kts | 20° |
| 2026-05-05 08:25 | 3.73271 | 73.36504 | 34923 ft | 448 kts | 20° |
| 2026-05-05 08:25 | 3.79170 | 73.38527 | 34923 ft | 448 kts | 20° |
| 2026-05-05 08:26 | 3.85075 | 73.40548 | 34922 ft | 448 kts | 20° |
| 2026-05-05 08:26 | 3.90987 | 73.42573 | 34924 ft | 449 kts | 20° |
| 2026-05-05 08:27 | 3.96864 | 73.44596 | 34925 ft | 449 kts | 20° |
| 2026-05-05 08:27 | 4.02771 | 73.46624 | 34925 ft | 449 kts | 20° |
| 2026-05-05 08:28 | 4.08685 | 73.48648 | 34933 ft | 449 kts | 20° |
| 2026-05-05 08:28 | 4.14602 | 73.50677 | 34928 ft | 450 kts | 20° |
| 2026-05-05 08:29 | 4.20418 | 73.52954 | 34935 ft | 448 kts | 30° |
| 2026-05-05 08:30 | 4.27862 | 73.58556 | 34934 ft | 447 kts | 40° |
| 2026-05-05 08:30 | 4.32713 | 73.62449 | 34940 ft | 447 kts | 39° |
| 2026-05-05 08:31 | 4.37565 | 73.66342 | 34938 ft | 447 kts | 40° |
| 2026-05-05 08:31 | 4.42418 | 73.70244 | 34931 ft | 447 kts | 40° |
| 2026-05-05 08:32 | 4.47277 | 73.74145 | 34933 ft | 448 kts | 39° |
| 2026-05-05 08:32 | 4.52114 | 73.78037 | 34932 ft | 448 kts | 40° |
| 2026-05-05 08:33 | 4.57002 | 73.81975 | 34932 ft | 448 kts | 40° |
| 2026-05-05 08:33 | 4.61825 | 73.85860 | 34937 ft | 448 kts | 40° |
| 2026-05-05 08:34 | 4.66691 | 73.89774 | 34935 ft | 448 kts | 40° |
| 2026-05-05 08:34 | 4.71555 | 73.93689 | 34941 ft | 448 kts | 40° |
| 2026-05-05 08:35 | 4.76411 | 73.97597 | 34942 ft | 448 kts | 40° |
| 2026-05-05 08:35 | 4.81272 | 74.01512 | 34933 ft | 448 kts | 39° |
| 2026-05-05 08:36 | 4.86135 | 74.05423 | 34938 ft | 448 kts | 39° |
| 2026-05-05 08:36 | 4.91030 | 74.09304 | 34934 ft | 448 kts | 39° |
| 2026-05-05 08:37 | 4.95944 | 74.13159 | 34934 ft | 448 kts | 39° |
| 2026-05-05 08:37 | 5.00857 | 74.17008 | 34934 ft | 448 kts | 39° |
| 2026-05-05 08:38 | 5.05763 | 74.20864 | 34936 ft | 448 kts | 39° |
| 2026-05-05 08:38 | 5.10662 | 74.24730 | 34932 ft | 448 kts | 39° |
| 2026-05-05 08:39 | 5.15520 | 74.28568 | 34926 ft | 447 kts | 39° |
| 2026-05-05 08:39 | 5.20412 | 74.32432 | 34921 ft | 447 kts | 39° |
| 2026-05-05 08:40 | 5.25310 | 74.36289 | 34919 ft | 447 kts | 39° |
| 2026-05-05 08:40 | 5.30214 | 74.40148 | 34920 ft | 447 kts | 39° |
| 2026-05-05 08:41 | 5.35108 | 74.44012 | 34924 ft | 447 kts | 39° |
| 2026-05-05 08:41 | 5.40000 | 74.47876 | 34923 ft | 447 kts | 39° |
| 2026-05-05 08:42 | 5.44899 | 74.51734 | 34923 ft | 447 kts | 39° |
| 2026-05-05 08:42 | 5.49789 | 74.55603 | 34921 ft | 447 kts | 39° |
| 2026-05-05 08:43 | 5.54641 | 74.59436 | 34918 ft | 447 kts | 39° |
| 2026-05-05 08:43 | 5.59535 | 74.63290 | 34915 ft | 447 kts | 39° |
| 2026-05-05 08:44 | 5.64422 | 74.67155 | 34912 ft | 447 kts | 39° |
| 2026-05-05 08:44 | 5.69314 | 74.71024 | 34910 ft | 447 kts | 39° |
| 2026-05-05 08:45 | 5.74203 | 74.74885 | 34910 ft | 447 kts | 39° |
| 2026-05-05 08:45 | 5.79095 | 74.78753 | 34909 ft | 447 kts | 39° |
| 2026-05-05 08:46 | 5.83986 | 74.82622 | 34909 ft | 447 kts | 39° |
| 2026-05-05 08:46 | 5.88848 | 74.86463 | 34906 ft | 447 kts | 39° |
| 2026-05-05 08:47 | 5.93733 | 74.90327 | 34901 ft | 447 kts | 39° |
| 2026-05-05 08:47 | 5.98619 | 74.94196 | 34898 ft | 446 kts | 39° |
| 2026-05-05 08:48 | 6.03500 | 74.98059 | 34889 ft | 447 kts | 39° |
| 2026-05-05 08:48 | 6.08389 | 75.01928 | 34881 ft | 448 kts | 39° |
| 2026-05-05 08:49 | 6.13290 | 75.05800 | 34883 ft | 448 kts | 39° |
| 2026-05-05 08:49 | 6.18193 | 75.09682 | 34879 ft | 449 kts | 39° |
| 2026-05-05 08:50 | 6.23099 | 75.13572 | 34881 ft | 449 kts | 39° |
| 2026-05-05 08:50 | 6.28008 | 75.17463 | 34887 ft | 450 kts | 39° |
| 2026-05-05 08:51 | 6.32926 | 75.21360 | 34886 ft | 450 kts | 39° |
| 2026-05-05 08:51 | 6.37807 | 75.25232 | 34887 ft | 450 kts | 39° |
| 2026-05-05 08:52 | 6.42730 | 75.29132 | 34888 ft | 451 kts | 39° |
| 2026-05-05 08:52 | 6.47663 | 75.33047 | 34892 ft | 452 kts | 39° |
| 2026-05-05 08:53 | 6.52596 | 75.36960 | 34894 ft | 452 kts | 39° |
| 2026-05-05 08:53 | 6.57533 | 75.40868 | 34894 ft | 452 kts | 39° |
| 2026-05-05 08:54 | 6.62472 | 75.44786 | 34891 ft | 452 kts | 39° |
| 2026-05-05 08:54 | 6.67402 | 75.48705 | 34889 ft | 451 kts | 39° |
| 2026-05-05 08:55 | 6.72329 | 75.52622 | 34888 ft | 452 kts | 39° |
| 2026-05-05 08:55 | 6.77260 | 75.56537 | 34883 ft | 452 kts | 39° |
| 2026-05-05 08:56 | 6.82193 | 75.60461 | 34878 ft | 452 kts | 39° |
| 2026-05-05 08:56 | 6.87126 | 75.64383 | 34873 ft | 452 kts | 39° |
| 2026-05-05 08:57 | 6.92034 | 75.68282 | 34872 ft | 452 kts | 39° |
| 2026-05-05 08:57 | 6.96970 | 75.72204 | 34868 ft | 452 kts | 39° |
| 2026-05-05 08:58 | 7.01898 | 75.76126 | 34863 ft | 451 kts | 39° |
| 2026-05-05 08:58 | 7.06822 | 75.80044 | 34859 ft | 452 kts | 39° |
| 2026-05-05 08:59 | 7.11763 | 75.83965 | 34859 ft | 452 kts | 39° |
| 2026-05-05 08:59 | 7.16699 | 75.87894 | 34859 ft | 452 kts | 39° |
| 2026-05-05 09:00 | 7.21635 | 75.91838 | 34859 ft | 453 kts | 39° |
| 2026-05-05 09:00 | 7.26575 | 75.95771 | 34859 ft | 453 kts | 39° |
| 2026-05-05 09:01 | 7.31522 | 75.99712 | 34858 ft | 453 kts | 39° |
| 2026-05-05 09:01 | 7.36464 | 76.03657 | 34859 ft | 454 kts | 39° |
| 2026-05-05 09:02 | 7.41407 | 76.07597 | 34860 ft | 453 kts | 39° |
| 2026-05-05 09:02 | 7.46352 | 76.11544 | 34859 ft | 453 kts | 39° |
| 2026-05-05 09:03 | 7.51301 | 76.15480 | 34858 ft | 453 kts | 39° |
| 2026-05-05 09:03 | 7.56216 | 76.19395 | 34859 ft | 453 kts | 39° |
| 2026-05-05 09:04 | 7.60357 | 76.22702 | 34859 ft | 453 kts | 39° |
| 2026-05-05 09:04 | 7.66106 | 76.27298 | 34856 ft | 454 kts | 39° |
| 2026-05-05 09:05 | 7.71055 | 76.31253 | 34854 ft | 454 kts | 39° |
| 2026-05-05 09:05 | 7.76017 | 76.35214 | 34855 ft | 455 kts | 39° |
| 2026-05-05 09:06 | 7.80974 | 76.39177 | 34857 ft | 455 kts | 39° |
| 2026-05-05 09:06 | 7.85097 | 76.42469 | 34858 ft | 454 kts | 39° |
| 2026-05-05 09:07 | 7.90054 | 76.46425 | 34855 ft | 454 kts | 39° |
| 2026-05-05 09:07 | 7.95001 | 76.50379 | 34855 ft | 453 kts | 39° |
| 2026-05-05 09:08 | 7.99942 | 76.54337 | 34853 ft | 453 kts | 39° |
| 2026-05-05 09:08 | 8.04854 | 76.58274 | 34853 ft | 454 kts | 39° |
| 2026-05-05 09:09 | 8.09799 | 76.62238 | 34853 ft | 454 kts | 39° |
| 2026-05-05 09:09 | 8.14743 | 76.66198 | 34854 ft | 454 kts | 39° |
| 2026-05-05 09:10 | 8.19698 | 76.70166 | 34852 ft | 454 kts | 39° |
| 2026-05-05 09:10 | 8.24655 | 76.74134 | 34854 ft | 454 kts | 39° |
| 2026-05-05 09:11 | 8.29614 | 76.78103 | 34857 ft | 455 kts | 39° |
| 2026-05-05 09:11 | 8.34571 | 76.82069 | 34860 ft | 454 kts | 39° |
| 2026-05-05 09:12 | 8.39482 | 76.86015 | 34859 ft | 453 kts | 39° |
| 2026-05-05 09:12 | 8.44412 | 76.89988 | 34856 ft | 453 kts | 39° |
| 2026-05-05 09:13 | 8.49336 | 76.93969 | 34855 ft | 452 kts | 40° |
| 2026-05-05 09:13 | 8.54152 | 76.98060 | 34852 ft | 452 kts | 41° |
| 2026-05-05 09:14 | 8.58925 | 77.02207 | 34852 ft | 453 kts | 41° |
| 2026-05-05 09:14 | 8.63714 | 77.06342 | 34854 ft | 453 kts | 41° |
| 2026-05-05 09:15 | 8.68520 | 77.10463 | 34854 ft | 453 kts | 41° |
| 2026-05-05 09:15 | 8.73334 | 77.14580 | 34852 ft | 453 kts | 41° |
| 2026-05-05 09:16 | 8.78146 | 77.18686 | 34851 ft | 452 kts | 41° |
| 2026-05-05 09:16 | 8.82954 | 77.22800 | 34846 ft | 453 kts | 41° |
| 2026-05-05 09:17 | 8.87728 | 77.26894 | 34844 ft | 453 kts | 41° |
| 2026-05-05 09:17 | 8.92535 | 77.31009 | 34842 ft | 452 kts | 41° |
| 2026-05-05 09:18 | 8.97347 | 77.35135 | 34837 ft | 453 kts | 41° |
| 2026-05-05 09:18 | 9.02154 | 77.39267 | 34834 ft | 453 kts | 41° |
| 2026-05-05 09:19 | 9.06955 | 77.43391 | 34831 ft | 453 kts | 41° |
| 2026-05-05 09:19 | 9.11732 | 77.47493 | 34830 ft | 454 kts | 41° |
| 2026-05-05 09:20 | 9.16546 | 77.51623 | 34821 ft | 454 kts | 41° |
| 2026-05-05 09:20 | 9.21363 | 77.55760 | 34831 ft | 454 kts | 41° |
| 2026-05-05 09:21 | 9.26179 | 77.59907 | 34832 ft | 455 kts | 41° |
| 2026-05-05 09:21 | 9.31003 | 77.64059 | 34821 ft | 455 kts | 41° |
| 2026-05-05 09:22 | 9.35827 | 77.68215 | 34814 ft | 455 kts | 41° |
| 2026-05-05 09:22 | 9.40647 | 77.72373 | 34820 ft | 455 kts | 41° |
| 2026-05-05 09:23 | 9.45435 | 77.76502 | 34816 ft | 455 kts | 41° |
| 2026-05-05 09:23 | 9.50260 | 77.80655 | 34811 ft | 455 kts | 41° |
| 2026-05-05 09:24 | 9.60343 | 77.89347 | 34818 ft | 455 kts | 41° |
| 2026-05-05 09:25 | 9.65188 | 77.93526 | 34807 ft | 456 kts | 41° |
| 2026-05-05 09:25 | 9.70027 | 77.97703 | 34819 ft | 457 kts | 41° |
| 2026-05-05 09:26 | 9.74867 | 78.01889 | 34811 ft | 458 kts | 41° |
| 2026-05-05 09:26 | 9.79682 | 78.06055 | 34816 ft | 458 kts | 41° |
| 2026-05-05 09:27 | 9.84660 | 78.10071 | 34823 ft | 458 kts | 34° |
| 2026-05-05 09:27 | 9.89966 | 78.13655 | 34830 ft | 458 kts | 34° |
| 2026-05-05 09:28 | 9.95281 | 78.17240 | 34816 ft | 458 kts | 34° |
| 2026-05-05 09:28 | 9.99730 | 78.20241 | 34831 ft | 458 kts | 34° |
| 2026-05-05 09:29 | 10.05003 | 78.23803 | 34831 ft | 458 kts | 34° |
| 2026-05-05 09:29 | 10.10304 | 78.27388 | 34830 ft | 458 kts | 34° |
| 2026-05-05 09:30 | 10.15607 | 78.30978 | 34831 ft | 458 kts | 34° |
| 2026-05-05 09:30 | 10.20908 | 78.34558 | 34818 ft | 458 kts | 34° |
| 2026-05-05 09:31 | 10.26209 | 78.38150 | 34816 ft | 457 kts | 34° |
| 2026-05-05 09:31 | 10.31504 | 78.41739 | 34820 ft | 458 kts | 34° |
| 2026-05-05 09:32 | 10.36809 | 78.45330 | 34806 ft | 458 kts | 34° |
| 2026-05-05 09:32 | 10.42112 | 78.48923 | 34815 ft | 458 kts | 34° |
| 2026-05-05 09:33 | 10.47407 | 78.52515 | 34814 ft | 458 kts | 34° |
| 2026-05-05 09:33 | 10.52701 | 78.56111 | 34807 ft | 457 kts | 34° |
| 2026-05-05 09:34 | 10.57998 | 78.59705 | 34800 ft | 457 kts | 34° |
| 2026-05-05 09:34 | 10.63283 | 78.63294 | 34805 ft | 457 kts | 34° |
| 2026-05-05 09:35 | 10.68544 | 78.66864 | 34795 ft | 457 kts | 34° |
| 2026-05-05 09:35 | 10.76478 | 78.72258 | 34799 ft | 457 kts | 34° |
| 2026-05-05 09:36 | 10.81804 | 78.75795 | 34639 ft | 454 kts | 32° |
| 2026-05-05 09:36 | 10.84462 | 78.77496 | 34389 ft | 450 kts | 32° |
| 2026-05-05 09:36 | 10.87112 | 78.79177 | 34137 ft | 447 kts | 32° |
| 2026-05-05 09:37 | 10.89745 | 78.80848 | 33903 ft | 445 kts | 32° |
| 2026-05-05 09:37 | 10.92364 | 78.82516 | 33874 ft | 444 kts | 32° |
| 2026-05-05 09:37 | 10.97505 | 78.86027 | 33955 ft | 445 kts | 44° |
| 2026-05-05 09:38 | 11.01305 | 78.90960 | 33919 ft | 444 kts | 66° |
| 2026-05-05 09:38 | 11.02446 | 78.93871 | 33680 ft | 442 kts | 70° |
| 2026-05-05 09:38 | 11.03532 | 78.96793 | 33426 ft | 440 kts | 70° |
| 2026-05-05 09:39 | 11.04612 | 78.99701 | 33171 ft | 438 kts | 70° |
| 2026-05-05 09:39 | 11.05687 | 79.02594 | 32918 ft | 436 kts | 70° |
| 2026-05-05 09:39 | 11.06747 | 79.05446 | 32669 ft | 435 kts | 70° |
| 2026-05-05 09:39 | 11.07817 | 79.08324 | 32418 ft | 434 kts | 70° |
| 2026-05-05 09:40 | 11.08881 | 79.11189 | 32168 ft | 433 kts | 70° |
| 2026-05-05 09:40 | 11.09988 | 79.14032 | 31915 ft | 431 kts | 64° |
| 2026-05-05 09:40 | 11.11607 | 79.16587 | 31669 ft | 429 kts | 51° |
| 2026-05-05 09:40 | 11.13503 | 79.18930 | 31413 ft | 429 kts | 51° |
| 2026-05-05 09:41 | 11.15375 | 79.21289 | 31167 ft | 427 kts | 51° |
| 2026-05-05 09:41 | 11.17229 | 79.23654 | 30919 ft | 427 kts | 52° |
| 2026-05-05 09:41 | 11.19073 | 79.26018 | 30669 ft | 425 kts | 52° |
| 2026-05-05 09:41 | 11.20909 | 79.28375 | 30419 ft | 424 kts | 52° |
| 2026-05-05 09:42 | 11.22744 | 79.30726 | 30168 ft | 423 kts | 52° |
| 2026-05-05 09:42 | 11.24572 | 79.33067 | 29919 ft | 421 kts | 52° |
| 2026-05-05 09:42 | 11.26396 | 79.35393 | 29668 ft | 420 kts | 51° |
| 2026-05-05 09:42 | 11.28217 | 79.37708 | 29416 ft | 418 kts | 52° |
| 2026-05-05 09:43 | 11.30033 | 79.40016 | 29165 ft | 416 kts | 52° |
| 2026-05-05 09:43 | 11.31846 | 79.42321 | 28915 ft | 415 kts | 52° |
| 2026-05-05 09:43 | 11.33648 | 79.44612 | 28665 ft | 414 kts | 52° |
| 2026-05-05 09:43 | 11.35447 | 79.46902 | 28412 ft | 412 kts | 52° |
| 2026-05-05 09:44 | 11.37232 | 79.49179 | 28166 ft | 411 kts | 52° |
| 2026-05-05 09:44 | 11.38987 | 79.51421 | 27923 ft | 409 kts | 52° |
| 2026-05-05 09:44 | 11.40785 | 79.53716 | 27664 ft | 408 kts | 52° |
| 2026-05-05 09:44 | 11.42554 | 79.55968 | 27411 ft | 406 kts | 52° |
| 2026-05-05 09:45 | 11.44319 | 79.58214 | 27168 ft | 405 kts | 52° |
| 2026-05-05 09:45 | 11.46078 | 79.60451 | 26911 ft | 404 kts | 52° |
| 2026-05-05 09:45 | 11.47810 | 79.62655 | 26662 ft | 403 kts | 52° |
| 2026-05-05 09:45 | 11.49578 | 79.64913 | 26405 ft | 401 kts | 52° |
| 2026-05-05 09:46 | 11.51311 | 79.67132 | 26159 ft | 400 kts | 52° |
| 2026-05-05 09:46 | 11.53044 | 79.69351 | 25913 ft | 399 kts | 52° |
| 2026-05-05 09:46 | 11.54766 | 79.71557 | 25660 ft | 398 kts | 53° |
| 2026-05-05 09:46 | 11.56489 | 79.73761 | 25409 ft | 396 kts | 53° |
| 2026-05-05 09:47 | 11.58183 | 79.75925 | 25163 ft | 395 kts | 52° |
| 2026-05-05 09:47 | 11.59892 | 79.78107 | 24920 ft | 393 kts | 53° |
| 2026-05-05 09:47 | 11.61597 | 79.80283 | 24782 ft | 391 kts | 53° |
| 2026-05-05 09:47 | 11.63293 | 79.82453 | 24813 ft | 392 kts | 53° |
| 2026-05-05 09:48 | 11.64998 | 79.84633 | 24814 ft | 393 kts | 53° |
| 2026-05-05 09:48 | 11.66700 | 79.86811 | 24813 ft | 393 kts | 53° |
| 2026-05-05 09:48 | 11.68405 | 79.88991 | 24813 ft | 393 kts | 53° |
| 2026-05-05 09:48 | 11.70110 | 79.91171 | 24810 ft | 393 kts | 53° |
| 2026-05-05 09:49 | 11.71812 | 79.93349 | 24557 ft | 391 kts | 53° |
| 2026-05-05 09:49 | 11.73507 | 79.95520 | 24296 ft | 390 kts | 53° |
| 2026-05-05 09:49 | 11.75195 | 79.97688 | 24058 ft | 390 kts | 53° |
| 2026-05-05 09:49 | 11.76878 | 79.99847 | 23810 ft | 388 kts | 53° |
| 2026-05-05 09:50 | 11.78559 | 80.01999 | 23559 ft | 387 kts | 53° |
| 2026-05-05 09:50 | 11.80230 | 80.04139 | 23311 ft | 385 kts | 53° |
| 2026-05-05 09:50 | 11.81893 | 80.06269 | 23059 ft | 383 kts | 53° |
| 2026-05-05 09:50 | 11.83547 | 80.08390 | 22809 ft | 381 kts | 53° |
| 2026-05-05 09:51 | 11.85323 | 80.10388 | 22552 ft | 380 kts | 43° |
| 2026-05-05 09:51 | 11.87446 | 80.12003 | 22302 ft | 379 kts | 31° |
| 2026-05-05 09:51 | 11.89818 | 80.13168 | 22051 ft | 378 kts | 22° |
| 2026-05-05 09:51 | 11.92247 | 80.14193 | 21800 ft | 377 kts | 23° |
| 2026-05-05 09:52 | 11.94656 | 80.15219 | 21547 ft | 374 kts | 23° |
| 2026-05-05 09:52 | 11.97024 | 80.16230 | 21301 ft | 373 kts | 23° |
| 2026-05-05 09:52 | 11.99409 | 80.17251 | 21050 ft | 371 kts | 23° |
| 2026-05-05 09:52 | 12.01781 | 80.18268 | 20794 ft | 369 kts | 23° |
| 2026-05-05 09:53 | 12.04140 | 80.19282 | 20552 ft | 366 kts | 24° |
| 2026-05-05 09:53 | 12.06526 | 80.20306 | 20296 ft | 368 kts | 24° |
| 2026-05-05 09:53 | 12.08853 | 80.21301 | 20041 ft | 367 kts | 23° |
| 2026-05-05 09:53 | 12.11185 | 80.22309 | 19784 ft | 362 kts | 24° |
| 2026-05-05 09:54 | 12.13498 | 80.23301 | 19545 ft | 358 kts | 23° |
| 2026-05-05 09:54 | 12.15786 | 80.24283 | 19286 ft | 355 kts | 24° |
| 2026-05-05 09:54 | 12.18065 | 80.25264 | 19043 ft | 357 kts | 24° |
| 2026-05-05 09:54 | 12.20311 | 80.26237 | 18786 ft | 344 kts | 24° |
| 2026-05-05 09:55 | 12.22469 | 80.27175 | 18419 ft | 331 kts | 23° |
| 2026-05-05 09:55 | 12.24555 | 80.28061 | 18035 ft | 319 kts | 24° |
| 2026-05-05 09:55 | 12.26586 | 80.28933 | 17652 ft | 316 kts | 23° |
| 2026-05-05 09:55 | 12.28616 | 80.29799 | 17272 ft | 316 kts | 23° |
| 2026-05-05 09:56 | 12.30645 | 80.30667 | 16907 ft | 314 kts | 24° |
| 2026-05-05 09:56 | 12.32648 | 80.31530 | 16533 ft | 311 kts | 24° |
| 2026-05-05 09:56 | 12.34688 | 80.32245 | 16164 ft | 309 kts | 13° |
| 2026-05-05 09:56 | 12.36810 | 80.32661 | 15818 ft | 318 kts | 11° |
| 2026-05-05 09:57 | 12.39011 | 80.33074 | 15432 ft | 323 kts | 11° |
| 2026-05-05 09:57 | 12.41215 | 80.33490 | 15050 ft | 322 kts | 11° |
| 2026-05-05 09:57 | 12.43415 | 80.33907 | 14674 ft | 321 kts | 11° |
| 2026-05-05 09:57 | 12.45612 | 80.34326 | 14299 ft | 320 kts | 11° |
| 2026-05-05 09:58 | 12.47796 | 80.34742 | 13922 ft | 319 kts | 11° |
| 2026-05-05 09:58 | 12.49973 | 80.35159 | 13548 ft | 318 kts | 11° |
| 2026-05-05 09:58 | 12.52128 | 80.35569 | 13313 ft | 310 kts | 11° |
| 2026-05-05 09:58 | 12.54220 | 80.35965 | 13179 ft | 301 kts | 11° |
| 2026-05-05 09:59 | 12.56251 | 80.36351 | 13051 ft | 292 kts | 11° |
| 2026-05-05 09:59 | 12.58251 | 80.36734 | 12685 ft | 293 kts | 11° |
| 2026-05-05 09:59 | 12.60216 | 80.37109 | 12321 ft | 286 kts | 11° |
| 2026-05-05 09:59 | 12.62149 | 80.37485 | 11942 ft | 278 kts | 12° |
| 2026-05-05 10:00 | 12.64041 | 80.37856 | 11608 ft | 268 kts | 11° |
| 2026-05-05 10:00 | 12.65829 | 80.38204 | 11264 ft | 264 kts | 12° |
| 2026-05-05 10:00 | 12.67623 | 80.38548 | 10973 ft | 256 kts | 11° |
| 2026-05-05 10:00 | 12.69414 | 80.38889 | 10695 ft | 269 kts | 10° |
| 2026-05-05 10:01 | 12.71268 | 80.39224 | 10385 ft | 269 kts | 11° |
| 2026-05-05 10:01 | 12.73107 | 80.39565 | 10044 ft | 268 kts | 11° |
| 2026-05-05 10:01 | 12.74937 | 80.39913 | 9697 ft | 267 kts | 11° |
| 2026-05-05 10:01 | 12.76738 | 80.40257 | 9350 ft | 266 kts | 11° |
| 2026-05-05 10:02 | 12.78554 | 80.40605 | 9022 ft | 265 kts | 11° |
| 2026-05-05 10:02 | 12.80359 | 80.40950 | 8572 ft | 262 kts | 11° |
| 2026-05-05 10:02 | 12.82152 | 80.41292 | 8011 ft | 262 kts | 11° |
| 2026-05-05 10:02 | 12.83943 | 80.41636 | 7622 ft | 265 kts | 11° |
| 2026-05-05 10:03 | 12.85758 | 80.41985 | 7295 ft | 264 kts | 11° |
| 2026-05-05 10:03 | 12.87558 | 80.42327 | 6979 ft | 263 kts | 11° |
| 2026-05-05 10:03 | 12.89356 | 80.42669 | 6682 ft | 263 kts | 11° |
| 2026-05-05 10:03 | 12.91150 | 80.43009 | 6381 ft | 261 kts | 11° |
| 2026-05-05 10:04 | 12.92906 | 80.43345 | 6228 ft | 252 kts | 11° |
| 2026-05-05 10:04 | 12.94597 | 80.43670 | 6122 ft | 242 kts | 10° |
| 2026-05-05 10:04 | 12.96219 | 80.43979 | 6019 ft | 232 kts | 10° |
| 2026-05-05 10:04 | 12.97784 | 80.44137 | 5918 ft | 221 kts | 355° |
| 2026-05-05 10:05 | 12.99251 | 80.43822 | 5818 ft | 210 kts | 339° |
| 2026-05-05 10:05 | 13.00506 | 80.43115 | 5488 ft | 205 kts | 321° |
| 2026-05-05 10:05 | 13.01610 | 80.42210 | 5165 ft | 202 kts | 321° |
| 2026-05-05 10:05 | 13.02698 | 80.41326 | 4873 ft | 197 kts | 321° |
| 2026-05-05 10:06 | 13.03765 | 80.40460 | 4595 ft | 193 kts | 321° |
| 2026-05-05 10:06 | 13.04815 | 80.39610 | 4321 ft | 191 kts | 321° |
| 2026-05-05 10:06 | 13.05782 | 80.38702 | 4053 ft | 187 kts | 303° |
| 2026-05-05 10:06 | 13.06291 | 80.37526 | 3823 ft | 177 kts | 277° |
| 2026-05-05 10:07 | 13.06272 | 80.36333 | 3794 ft | 160 kts | 253° |
| 2026-05-05 10:07 | 13.05903 | 80.35282 | 3791 ft | 157 kts | 246° |
| 2026-05-05 10:07 | 13.05512 | 80.34250 | 3798 ft | 155 kts | 246° |
| 2026-05-05 10:07 | 13.05120 | 80.33223 | 3810 ft | 154 kts | 246° |
| 2026-05-05 10:08 | 13.04744 | 80.32206 | 3672 ft | 148 kts | 247° |
| 2026-05-05 10:08 | 13.04382 | 80.31222 | 3292 ft | 147 kts | 247° |
| 2026-05-05 10:08 | 13.04016 | 80.30238 | 2893 ft | 150 kts | 246° |
| 2026-05-05 10:08 | 13.03647 | 80.29243 | 2492 ft | 148 kts | 245° |
| 2026-05-05 10:09 | 13.03283 | 80.28275 | 2164 ft | 142 kts | 245° |
| 2026-05-05 10:09 | 13.03206 | 80.28069 | 2106 ft | 141 kts | 243° |
| 2026-05-05 10:12 | 13.03098 | 80.27775 | 2063 ft | 140 kts | 246° |
| 2026-05-05 10:12 | 13.02746 | 80.26840 | 1850 ft | 140 kts | 244° |
| 2026-05-05 10:13 | 13.02398 | 80.25914 | 1633 ft | 139 kts | 244° |
| 2026-05-05 10:13 | 13.02050 | 80.24985 | 1436 ft | 139 kts | 244° |
| 2026-05-05 10:13 | 13.01814 | 80.24357 | 1305 ft | 139 kts | 243° |
| 2026-05-05 10:13 | 13.01354 | 80.23130 | 1053 ft | 139 kts | 244° |
| 2026-05-05 10:14 | 13.01120 | 80.22505 | 934 ft | 138 kts | 243° |
| 2026-05-05 10:14 | 13.00662 | 80.21286 | 688 ft | 138 kts | 244° |
| 2026-05-05 10:14 | 13.00429 | 80.20666 | 561 ft | 137 kts | 244° |
| 2026-05-05 10:14 | 13.00087 | 80.19757 | 385 ft | 137 kts | 245° |
| 2026-05-05 10:15 | 12.99748 | 80.18851 | 206 ft | 138 kts | 245° |
| 2026-05-05 10:15 | 12.99404 | 80.17936 | 61 ft | 134 kts | 248° |
| 2026-05-05 10:15 | 12.99178 | 80.17329 | 51 ft | 45 kts | 250° |
| 2026-05-05 10:15 | 12.99099 | 80.17116 | 52 ft | 31 kts | 248° |
| 2026-05-05 10:16 | 12.99025 | 80.16922 | 52 ft | 28 kts | 249° |
| 2026-05-05 10:16 | 12.98950 | 80.16723 | 55 ft | 35 kts | 249° |
| 2026-05-05 10:16 | 12.98857 | 80.16485 | 56 ft | 36 kts | 244° |
| 2026-05-05 10:16 | 12.98708 | 80.16328 | 54 ft | 29 kts | 217° |
| 2026-05-05 10:17 | 12.98585 | 80.16233 | 55 ft | 21 kts | 217° |
| 2026-05-05 10:17 | 12.98530 | 80.16144 | 51 ft | 13 kts | 228° |
| 2026-05-05 10:17 | 12.98437 | 80.16155 | 53 ft | 15 kts | 158° |
| 2026-05-05 10:17 | 12.98365 | 80.16223 | 55 ft | 11 kts | 146° |
| 2026-05-05 10:18 | 12.98312 | 80.16245 | 55 ft | 0 kts | 160° |
| 2026-05-05 10:22 | 12.98313 | 80.16245 | 48 ft | 0 kts | 160° |